Randall, Minnesota
Current Conditions -  °F | °C
As of 8:57 AM on Wednesday 22 Oct 2014 (Local Time) from KLXL Reporting Station
Scattered Clouds Scattered Clouds  
Wind Chill: 37°   Ceiling: Unl
Heat Index: 43°   Visibility: 10mi
Dew Point: 36°   Wind: 12mph
Humidity: 76%   Direction: 130°SE
Pressure: 30.09"   Gusts: 17mph
Location:  46.09°N, 94.5°W
Report Text: KLXL 221357Z AUTO 13010G15KT 10SM SCT045 06/02 A3009 RMK AO2
Loading
Personal Weather Stations






























Interactive Weather Map
Tropical Storm Tracking
New forecast layout! Learn more

10-Day Weather Forecast

Advertisements
Track Severe Weather on mobile